sensor_id;sensor_type;location;lat;lon;timestamp;P1;durP1;ratioP1;P2;durP2;ratioP2
15155;SDS011;7678;50.058;8.306;2024-01-25T00:01:02;30.13;;;6.77;;
15155;SDS011;7678;50.058;8.306;2024-01-25T00:03:31;33.47;;;6.40;;
15155;SDS011;7678;50.058;8.306;2024-01-25T00:06:01;25.77;;;5.77;;
15155;SDS011;7678;50.058;8.306;2024-01-25T00:08:30;27.87;;;6.03;;
15155;SDS011;7678;50.058;8.306;2024-01-25T00:10:58;36.13;;;6.30;;
15155;SDS011;7678;50.058;8.306;2024-01-25T00:13:26;26.87;;;5.90;;
15155;SDS011;7678;50.058;8.306;2024-01-25T00:15:55;29.70;;;5.90;;
15155;SDS011;7678;50.058;8.306;2024-01-25T00:18:24;25.00;;;4.73;;
15155;SDS011;7678;50.058;8.306;2024-01-25T00:20:52;24.93;;;4.93;;
15155;SDS011;7678;50.058;8.306;2024-01-25T00:23:22;23.83;;;5.60;;
15155;SDS011;7678;50.058;8.306;2024-01-25T00:25:50;31.80;;;5.40;;
15155;SDS011;7678;50.058;8.306;2024-01-25T00:28:18;29.57;;;6.13;;
15155;SDS011;7678;50.058;8.306;2024-01-25T00:30:47;26.30;;;5.43;;
15155;SDS011;7678;50.058;8.306;2024-01-25T00:33:15;27.47;;;5.53;;
15155;SDS011;7678;50.058;8.306;2024-01-25T00:35:44;24.40;;;6.07;;
15155;SDS011;7678;50.058;8.306;2024-01-25T00:38:12;30.30;;;5.73;;
15155;SDS011;7678;50.058;8.306;2024-01-25T00:40:43;28.43;;;5.00;;
15155;SDS011;7678;50.058;8.306;2024-01-25T00:43:13;33.53;;;6.70;;
15155;SDS011;7678;50.058;8.306;2024-01-25T00:45:43;31.17;;;6.50;;
15155;SDS011;7678;50.058;8.306;2024-01-25T00:48:12;26.33;;;5.33;;
15155;SDS011;7678;50.058;8.306;2024-01-25T00:50:41;29.20;;;6.93;;
15155;SDS011;7678;50.058;8.306;2024-01-25T00:53:10;27.17;;;5.30;;
15155;SDS011;7678;50.058;8.306;2024-01-25T00:55:39;26.57;;;7.30;;
15155;SDS011;7678;50.058;8.306;2024-01-25T00:58:10;31.10;;;6.13;;
15155;SDS011;7678;50.058;8.306;2024-01-25T01:00:39;26.37;;;5.70;;
15155;SDS011;7678;50.058;8.306;2024-01-25T01:03:08;26.03;;;5.77;;
15155;SDS011;7678;50.058;8.306;2024-01-25T01:05:37;28.77;;;5.50;;
15155;SDS011;7678;50.058;8.306;2024-01-25T01:08:06;26.30;;;6.17;;
15155;SDS011;7678;50.058;8.306;2024-01-25T01:10:36;21.27;;;5.50;;
15155;SDS011;7678;50.058;8.306;2024-01-25T01:13:04;25.83;;;6.27;;
15155;SDS011;7678;50.058;8.306;2024-01-25T01:15:33;30.13;;;5.57;;
15155;SDS011;7678;50.058;8.306;2024-01-25T01:18:02;29.97;;;5.90;;
15155;SDS011;7678;50.058;8.306;2024-01-25T01:20:31;21.23;;;5.30;;
15155;SDS011;7678;50.058;8.306;2024-01-25T01:23:00;25.40;;;5.30;;
15155;SDS011;7678;50.058;8.306;2024-01-25T01:25:31;29.87;;;5.60;;
15155;SDS011;7678;50.058;8.306;2024-01-25T01:28:02;23.83;;;4.73;;
15155;SDS011;7678;50.058;8.306;2024-01-25T01:30:31;25.87;;;5.57;;
15155;SDS011;7678;50.058;8.306;2024-01-25T01:33:00;26.07;;;5.57;;
15155;SDS011;7678;50.058;8.306;2024-01-25T01:35:29;29.40;;;6.37;;
15155;SDS011;7678;50.058;8.306;2024-01-25T01:37:57;24.93;;;5.33;;
15155;SDS011;7678;50.058;8.306;2024-01-25T01:40:25;23.30;;;5.00;;
15155;SDS011;7678;50.058;8.306;2024-01-25T01:42:58;28.23;;;4.97;;
15155;SDS011;7678;50.058;8.306;2024-01-25T01:45:27;25.33;;;6.33;;
15155;SDS011;7678;50.058;8.306;2024-01-25T01:47:55;29.17;;;5.50;;
15155;SDS011;7678;50.058;8.306;2024-01-25T01:50:26;32.33;;;6.60;;
15155;SDS011;7678;50.058;8.306;2024-01-25T01:52:55;27.00;;;5.20;;
15155;SDS011;7678;50.058;8.306;2024-01-25T01:55:23;28.50;;;5.80;;
15155;SDS011;7678;50.058;8.306;2024-01-25T01:57:52;29.80;;;5.40;;
15155;SDS011;7678;50.058;8.306;2024-01-25T02:00:20;26.93;;;5.00;;
15155;SDS011;7678;50.058;8.306;2024-01-25T02:02:49;26.07;;;5.60;;
15155;SDS011;7678;50.058;8.306;2024-01-25T02:05:18;28.73;;;5.13;;
15155;SDS011;7678;50.058;8.306;2024-01-25T02:07:48;28.20;;;5.70;;
15155;SDS011;7678;50.058;8.306;2024-01-25T02:10:18;30.87;;;5.40;;
15155;SDS011;7678;50.058;8.306;2024-01-25T02:12:47;25.37;;;4.57;;
15155;SDS011;7678;50.058;8.306;2024-01-25T02:15:15;24.00;;;5.63;;
15155;SDS011;7678;50.058;8.306;2024-01-25T02:17:44;27.23;;;4.93;;
15155;SDS011;7678;50.058;8.306;2024-01-25T02:20:13;27.73;;;5.37;;
15155;SDS011;7678;50.058;8.306;2024-01-25T02:22:42;21.13;;;4.53;;
15155;SDS011;7678;50.058;8.306;2024-01-25T02:25:11;32.00;;;6.27;;
15155;SDS011;7678;50.058;8.306;2024-01-25T02:27:40;26.63;;;5.20;;
15155;SDS011;7678;50.058;8.306;2024-01-25T02:30:08;22.37;;;5.40;;
15155;SDS011;7678;50.058;8.306;2024-01-25T02:32:37;29.10;;;5.90;;
15155;SDS011;7678;50.058;8.306;2024-01-25T02:35:06;25.43;;;5.47;;
15155;SDS011;7678;50.058;8.306;2024-01-25T02:37:34;25.80;;;4.83;;
15155;SDS011;7678;50.058;8.306;2024-01-25T02:40:05;19.50;;;5.17;;
15155;SDS011;7678;50.058;8.306;2024-01-25T02:42:34;31.03;;;6.00;;
15155;SDS011;7678;50.058;8.306;2024-01-25T02:45:03;26.73;;;5.73;;
15155;SDS011;7678;50.058;8.306;2024-01-25T02:47:32;21.50;;;5.50;;
15155;SDS011;7678;50.058;8.306;2024-01-25T02:50:04;29.53;;;5.40;;
15155;SDS011;7678;50.058;8.306;2024-01-25T02:52:33;28.50;;;6.33;;
15155;SDS011;7678;50.058;8.306;2024-01-25T02:55:05;29.67;;;5.00;;
15155;SDS011;7678;50.058;8.306;2024-01-25T02:57:35;28.43;;;6.20;;
15155;SDS011;7678;50.058;8.306;2024-01-25T03:00:03;29.77;;;4.80;;
15155;SDS011;7678;50.058;8.306;2024-01-25T03:02:33;22.47;;;5.60;;
15155;SDS011;7678;50.058;8.306;2024-01-25T03:05:01;21.80;;;5.80;;
15155;SDS011;7678;50.058;8.306;2024-01-25T03:07:29;26.30;;;5.77;;
15155;SDS011;7678;50.058;8.306;2024-01-25T03:09:58;24.30;;;5.20;;
15155;SDS011;7678;50.058;8.306;2024-01-25T03:12:28;27.17;;;5.83;;
15155;SDS011;7678;50.058;8.306;2024-01-25T03:14:55;24.13;;;5.00;;
15155;SDS011;7678;50.058;8.306;2024-01-25T03:17:23;25.63;;;6.20;;
15155;SDS011;7678;50.058;8.306;2024-01-25T03:19:53;19.43;;;5.17;;
15155;SDS011;7678;50.058;8.306;2024-01-25T03:22:21;20.57;;;5.23;;
15155;SDS011;7678;50.058;8.306;2024-01-25T03:24:49;22.00;;;5.40;;
15155;SDS011;7678;50.058;8.306;2024-01-25T03:27:18;29.87;;;5.27;;
15155;SDS011;7678;50.058;8.306;2024-01-25T03:29:48;23.33;;;5.93;;
15155;SDS011;7678;50.058;8.306;2024-01-25T03:32:16;22.33;;;5.03;;
15155;SDS011;7678;50.058;8.306;2024-01-25T03:34:44;20.97;;;5.47;;
15155;SDS011;7678;50.058;8.306;2024-01-25T03:37:13;25.73;;;5.43;;
15155;SDS011;7678;50.058;8.306;2024-01-25T03:39:41;30.50;;;7.03;;
15155;SDS011;7678;50.058;8.306;2024-01-25T03:42:10;23.07;;;5.07;;
15155;SDS011;7678;50.058;8.306;2024-01-25T03:44:38;22.63;;;4.73;;
15155;SDS011;7678;50.058;8.306;2024-01-25T03:47:10;24.10;;;5.13;;
15155;SDS011;7678;50.058;8.306;2024-01-25T03:49:39;26.83;;;6.10;;
15155;SDS011;7678;50.058;8.306;2024-01-25T03:52:07;29.30;;;5.37;;
15155;SDS011;7678;50.058;8.306;2024-01-25T03:54:35;24.97;;;5.27;;
15155;SDS011;7678;50.058;8.306;2024-01-25T03:57:04;25.17;;;6.07;;
15155;SDS011;7678;50.058;8.306;2024-01-25T03:59:32;23.43;;;5.70;;
15155;SDS011;7678;50.058;8.306;2024-01-25T04:02:00;34.57;;;6.17;;
15155;SDS011;7678;50.058;8.306;2024-01-25T04:04:30;25.27;;;5.73;;
15155;SDS011;7678;50.058;8.306;2024-01-25T04:06:58;26.30;;;6.10;;
15155;SDS011;7678;50.058;8.306;2024-01-25T04:09:26;38.73;;;6.53;;
15155;SDS011;7678;50.058;8.306;2024-01-25T04:11:55;24.60;;;5.30;;
15155;SDS011;7678;50.058;8.306;2024-01-25T04:14:23;27.43;;;6.17;;
15155;SDS011;7678;50.058;8.306;2024-01-25T04:16:52;26.63;;;6.57;;
15155;SDS011;7678;50.058;8.306;2024-01-25T04:19:22;26.47;;;5.53;;
15155;SDS011;7678;50.058;8.306;2024-01-25T04:21:53;32.07;;;6.53;;
15155;SDS011;7678;50.058;8.306;2024-01-25T04:24:21;30.30;;;7.03;;
15155;SDS011;7678;50.058;8.306;2024-01-25T04:26:50;23.00;;;5.73;;
15155;SDS011;7678;50.058;8.306;2024-01-25T04:29:18;26.60;;;6.10;;
15155;SDS011;7678;50.058;8.306;2024-01-25T04:31:46;23.93;;;5.97;;
15155;SDS011;7678;50.058;8.306;2024-01-25T04:34:15;31.73;;;7.13;;
15155;SDS011;7678;50.058;8.306;2024-01-25T04:36:43;20.73;;;5.37;;
15155;SDS011;7678;50.058;8.306;2024-01-25T04:39:13;28.50;;;6.70;;
15155;SDS011;7678;50.058;8.306;2024-01-25T04:41:41;32.13;;;6.73;;
15155;SDS011;7678;50.058;8.306;2024-01-25T04:44:09;29.03;;;6.47;;
15155;SDS011;7678;50.058;8.306;2024-01-25T04:46:37;29.13;;;6.07;;
15155;SDS011;7678;50.058;8.306;2024-01-25T04:49:05;30.03;;;6.43;;
15155;SDS011;7678;50.058;8.306;2024-01-25T04:51:34;38.57;;;6.77;;
15155;SDS011;7678;50.058;8.306;2024-01-25T04:54:02;32.17;;;6.33;;
15155;SDS011;7678;50.058;8.306;2024-01-25T04:56:32;27.33;;;6.03;;
15155;SDS011;7678;50.058;8.306;2024-01-25T04:59:02;25.57;;;5.97;;
15155;SDS011;7678;50.058;8.306;2024-01-25T05:01:30;25.97;;;5.90;;
15155;SDS011;7678;50.058;8.306;2024-01-25T05:03:59;28.80;;;5.90;;
15155;SDS011;7678;50.058;8.306;2024-01-25T05:06:28;30.67;;;5.63;;
15155;SDS011;7678;50.058;8.306;2024-01-25T05:08:56;31.67;;;5.93;;
15155;SDS011;7678;50.058;8.306;2024-01-25T05:11:24;34.20;;;6.77;;
15155;SDS011;7678;50.058;8.306;2024-01-25T05:13:54;25.60;;;6.07;;
15155;SDS011;7678;50.058;8.306;2024-01-25T05:16:22;32.43;;;6.43;;
15155;SDS011;7678;50.058;8.306;2024-01-25T05:18:51;24.50;;;5.00;;
15155;SDS011;7678;50.058;8.306;2024-01-25T05:21:19;34.13;;;6.10;;
15155;SDS011;7678;50.058;8.306;2024-01-25T05:23:48;26.50;;;6.10;;
15155;SDS011;7678;50.058;8.306;2024-01-25T05:26:16;34.77;;;5.90;;
15155;SDS011;7678;50.058;8.306;2024-01-25T05:28:45;29.80;;;6.60;;
15155;SDS011;7678;50.058;8.306;2024-01-25T05:31:15;35.63;;;6.80;;
15155;SDS011;7678;50.058;8.306;2024-01-25T05:33:43;35.23;;;6.10;;
15155;SDS011;7678;50.058;8.306;2024-01-25T05:36:12;33.80;;;6.90;;
15155;SDS011;7678;50.058;8.306;2024-01-25T05:38:40;30.00;;;7.00;;
15155;SDS011;7678;50.058;8.306;2024-01-25T05:41:08;25.60;;;5.93;;
15155;SDS011;7678;50.058;8.306;2024-01-25T05:43:36;29.33;;;6.30;;
15155;SDS011;7678;50.058;8.306;2024-01-25T05:46:05;29.17;;;6.17;;
15155;SDS011;7678;50.058;8.306;2024-01-25T05:48:34;30.43;;;6.87;;
15155;SDS011;7678;50.058;8.306;2024-01-25T05:51:03;26.80;;;6.00;;
15155;SDS011;7678;50.058;8.306;2024-01-25T05:53:31;28.77;;;6.53;;
15155;SDS011;7678;50.058;8.306;2024-01-25T05:55:59;31.17;;;5.97;;
15155;SDS011;7678;50.058;8.306;2024-01-25T05:58:30;32.63;;;6.87;;
15155;SDS011;7678;50.058;8.306;2024-01-25T06:00:58;30.33;;;6.57;;
15155;SDS011;7678;50.058;8.306;2024-01-25T06:03:26;37.47;;;7.20;;
15155;SDS011;7678;50.058;8.306;2024-01-25T06:05:56;29.97;;;6.23;;
15155;SDS011;7678;50.058;8.306;2024-01-25T06:08:25;30.80;;;6.03;;
15155;SDS011;7678;50.058;8.306;2024-01-25T06:10:53;29.90;;;5.47;;
15155;SDS011;7678;50.058;8.306;2024-01-25T06:13:21;28.93;;;6.57;;
15155;SDS011;7678;50.058;8.306;2024-01-25T06:15:49;32.47;;;6.73;;
15155;SDS011;7678;50.058;8.306;2024-01-25T06:18:18;29.60;;;7.50;;
15155;SDS011;7678;50.058;8.306;2024-01-25T06:20:49;36.33;;;7.67;;
15155;SDS011;7678;50.058;8.306;2024-01-25T06:23:19;39.27;;;6.70;;
15155;SDS011;7678;50.058;8.306;2024-01-25T06:25:47;22.50;;;6.13;;
15155;SDS011;7678;50.058;8.306;2024-01-25T06:28:16;39.77;;;7.37;;
15155;SDS011;7678;50.058;8.306;2024-01-25T06:30:46;30.83;;;6.70;;
15155;SDS011;7678;50.058;8.306;2024-01-25T06:33:15;33.07;;;6.23;;
15155;SDS011;7678;50.058;8.306;2024-01-25T06:35:44;27.93;;;5.20;;
15155;SDS011;7678;50.058;8.306;2024-01-25T06:38:13;28.20;;;5.50;;
15155;SDS011;7678;50.058;8.306;2024-01-25T06:40:43;32.83;;;7.07;;
15155;SDS011;7678;50.058;8.306;2024-01-25T06:43:11;23.83;;;5.60;;
15155;SDS011;7678;50.058;8.306;2024-01-25T06:45:39;27.50;;;5.90;;
15155;SDS011;7678;50.058;8.306;2024-01-25T06:48:08;30.40;;;6.97;;
15155;SDS011;7678;50.058;8.306;2024-01-25T06:50:36;29.67;;;6.53;;
15155;SDS011;7678;50.058;8.306;2024-01-25T06:53:05;39.17;;;7.57;;
15155;SDS011;7678;50.058;8.306;2024-01-25T06:55:33;28.80;;;7.00;;
15155;SDS011;7678;50.058;8.306;2024-01-25T06:58:03;36.03;;;7.07;;
15155;SDS011;7678;50.058;8.306;2024-01-25T07:00:31;30.63;;;7.43;;
15155;SDS011;7678;50.058;8.306;2024-01-25T07:03:00;39.07;;;8.03;;
15155;SDS011;7678;50.058;8.306;2024-01-25T07:05:30;36.90;;;7.00;;
15155;SDS011;7678;50.058;8.306;2024-01-25T07:08:01;27.13;;;6.03;;
15155;SDS011;7678;50.058;8.306;2024-01-25T07:10:30;39.40;;;6.63;;
15155;SDS011;7678;50.058;8.306;2024-01-25T07:12:59;40.00;;;7.80;;
15155;SDS011;7678;50.058;8.306;2024-01-25T07:15:30;39.37;;;7.13;;
15155;SDS011;7678;50.058;8.306;2024-01-25T07:17:59;38.40;;;7.00;;
15155;SDS011;7678;50.058;8.306;2024-01-25T07:20:27;37.30;;;6.57;;
15155;SDS011;7678;50.058;8.306;2024-01-25T07:22:56;35.53;;;7.03;;
15155;SDS011;7678;50.058;8.306;2024-01-25T07:25:24;36.07;;;7.47;;
15155;SDS011;7678;50.058;8.306;2024-01-25T07:27:53;36.70;;;7.60;;
15155;SDS011;7678;50.058;8.306;2024-01-25T07:30:22;48.10;;;8.10;;
15155;SDS011;7678;50.058;8.306;2024-01-25T07:32:52;35.40;;;7.03;;
15155;SDS011;7678;50.058;8.306;2024-01-25T07:35:20;38.77;;;7.37;;
15155;SDS011;7678;50.058;8.306;2024-01-25T07:37:50;32.20;;;7.23;;
15155;SDS011;7678;50.058;8.306;2024-01-25T07:40:20;41.73;;;7.80;;
15155;SDS011;7678;50.058;8.306;2024-01-25T07:42:48;37.93;;;8.10;;
15155;SDS011;7678;50.058;8.306;2024-01-25T07:45:17;27.50;;;7.70;;
15155;SDS011;7678;50.058;8.306;2024-01-25T07:47:46;35.53;;;7.80;;
15155;SDS011;7678;50.058;8.306;2024-01-25T07:50:21;35.10;;;7.83;;
15155;SDS011;7678;50.058;8.306;2024-01-25T07:52:50;40.30;;;8.13;;
15155;SDS011;7678;50.058;8.306;2024-01-25T07:55:18;39.17;;;8.33;;
15155;SDS011;7678;50.058;8.306;2024-01-25T07:57:48;39.53;;;8.07;;
15155;SDS011;7678;50.058;8.306;2024-01-25T08:00:17;37.83;;;9.20;;
15155;SDS011;7678;50.058;8.306;2024-01-25T08:02:46;44.80;;;7.90;;
15155;SDS011;7678;50.058;8.306;2024-01-25T08:05:15;35.23;;;7.77;;
15155;SDS011;7678;50.058;8.306;2024-01-25T08:07:46;39.67;;;9.83;;
15155;SDS011;7678;50.058;8.306;2024-01-25T08:10:17;36.57;;;7.77;;
15155;SDS011;7678;50.058;8.306;2024-01-25T08:12:45;37.67;;;8.50;;
15155;SDS011;7678;50.058;8.306;2024-01-25T08:15:24;34.30;;;7.80;;
15155;SDS011;7678;50.058;8.306;2024-01-25T08:17:52;37.40;;;8.20;;
15155;SDS011;7678;50.058;8.306;2024-01-25T08:20:21;34.50;;;8.50;;
15155;SDS011;7678;50.058;8.306;2024-01-25T08:22:50;33.20;;;8.03;;
15155;SDS011;7678;50.058;8.306;2024-01-25T08:25:18;30.70;;;8.03;;
15155;SDS011;7678;50.058;8.306;2024-01-25T08:27:53;37.60;;;8.60;;
15155;SDS011;7678;50.058;8.306;2024-01-25T08:30:22;39.13;;;8.97;;
15155;SDS011;7678;50.058;8.306;2024-01-25T08:32:50;41.10;;;9.00;;
15155;SDS011;7678;50.058;8.306;2024-01-25T08:35:19;27.73;;;7.77;;
15155;SDS011;7678;50.058;8.306;2024-01-25T08:37:49;38.50;;;8.00;;
15155;SDS011;7678;50.058;8.306;2024-01-25T08:40:18;41.27;;;7.77;;
15155;SDS011;7678;50.058;8.306;2024-01-25T08:42:47;32.93;;;7.53;;
15155;SDS011;7678;50.058;8.306;2024-01-25T08:45:15;32.53;;;7.20;;
15155;SDS011;7678;50.058;8.306;2024-01-25T08:47:44;42.87;;;7.90;;
15155;SDS011;7678;50.058;8.306;2024-01-25T08:50:13;40.53;;;9.13;;
15155;SDS011;7678;50.058;8.306;2024-01-25T08:52:42;40.93;;;8.23;;
15155;SDS011;7678;50.058;8.306;2024-01-25T08:55:12;39.20;;;8.43;;
15155;SDS011;7678;50.058;8.306;2024-01-25T08:57:40;39.07;;;9.70;;
15155;SDS011;7678;50.058;8.306;2024-01-25T09:00:09;32.07;;;8.47;;
15155;SDS011;7678;50.058;8.306;2024-01-25T09:02:37;45.23;;;9.47;;
15155;SDS011;7678;50.058;8.306;2024-01-25T09:05:06;38.20;;;9.33;;
15155;SDS011;7678;50.058;8.306;2024-01-25T09:07:37;40.10;;;9.60;;
15155;SDS011;7678;50.058;8.306;2024-01-25T09:10:06;35.10;;;8.33;;
15155;SDS011;7678;50.058;8.306;2024-01-25T09:12:37;46.60;;;9.27;;
15155;SDS011;7678;50.058;8.306;2024-01-25T09:15:06;37.87;;;8.30;;
15155;SDS011;7678;50.058;8.306;2024-01-25T09:17:36;37.07;;;7.23;;
15155;SDS011;7678;50.058;8.306;2024-01-25T09:20:05;38.57;;;7.47;;
15155;SDS011;7678;50.058;8.306;2024-01-25T09:22:35;29.83;;;7.47;;
15155;SDS011;7678;50.058;8.306;2024-01-25T09:25:04;30.47;;;7.57;;
15155;SDS011;7678;50.058;8.306;2024-01-25T09:27:37;39.70;;;8.23;;
15155;SDS011;7678;50.058;8.306;2024-01-25T09:30:06;35.33;;;7.53;;
15155;SDS011;7678;50.058;8.306;2024-01-25T09:32:35;37.07;;;8.17;;
15155;SDS011;7678;50.058;8.306;2024-01-25T09:35:05;42.37;;;9.67;;
15155;SDS011;7678;50.058;8.306;2024-01-25T09:37:35;38.03;;;8.30;;
15155;SDS011;7678;50.058;8.306;2024-01-25T09:40:04;34.07;;;8.43;;
15155;SDS011;7678;50.058;8.306;2024-01-25T09:42:34;33.70;;;7.50;;
15155;SDS011;7678;50.058;8.306;2024-01-25T09:45:05;28.77;;;7.30;;
15155;SDS011;7678;50.058;8.306;2024-01-25T09:47:35;32.43;;;7.23;;
15155;SDS011;7678;50.058;8.306;2024-01-25T09:50:03;30.97;;;6.83;;
15155;SDS011;7678;50.058;8.306;2024-01-25T09:52:33;35.17;;;7.13;;
15155;SDS011;7678;50.058;8.306;2024-01-25T09:55:05;33.90;;;7.47;;
15155;SDS011;7678;50.058;8.306;2024-01-25T09:57:36;36.30;;;8.20;;
15155;SDS011;7678;50.058;8.306;2024-01-25T10:00:05;35.30;;;7.67;;
15155;SDS011;7678;50.058;8.306;2024-01-25T10:02:38;39.17;;;8.53;;
15155;SDS011;7678;50.058;8.306;2024-01-25T10:05:07;31.50;;;7.30;;
15155;SDS011;7678;50.058;8.306;2024-01-25T10:07:36;35.43;;;7.10;;
15155;SDS011;7678;50.058;8.306;2024-01-25T10:10:07;32.57;;;7.30;;
15155;SDS011;7678;50.058;8.306;2024-01-25T10:12:39;38.53;;;8.27;;
15155;SDS011;7678;50.058;8.306;2024-01-25T10:15:08;35.10;;;7.47;;
15155;SDS011;7678;50.058;8.306;2024-01-25T10:17:38;32.60;;;8.10;;
15155;SDS011;7678;50.058;8.306;2024-01-25T10:20:26;28.87;;;6.90;;
15155;SDS011;7678;50.058;8.306;2024-01-25T10:22:58;30.30;;;6.70;;
15155;SDS011;7678;50.058;8.306;2024-01-25T10:25:27;29.83;;;7.13;;
15155;SDS011;7678;50.058;8.306;2024-01-25T10:27:57;31.57;;;6.30;;
15155;SDS011;7678;50.058;8.306;2024-01-25T10:30:26;32.40;;;6.60;;
15155;SDS011;7678;50.058;8.306;2024-01-25T10:32:59;33.70;;;7.85;;
15155;SDS011;7678;50.058;8.306;2024-01-25T10:35:27;33.57;;;8.07;;
15155;SDS011;7678;50.058;8.306;2024-01-25T10:37:56;30.07;;;6.63;;
15155;SDS011;7678;50.058;8.306;2024-01-25T10:40:26;33.87;;;5.90;;
15155;SDS011;7678;50.058;8.306;2024-01-25T10:42:58;30.17;;;6.17;;
15155;SDS011;7678;50.058;8.306;2024-01-25T10:45:26;26.13;;;6.63;;
15155;SDS011;7678;50.058;8.306;2024-01-25T10:47:55;31.20;;;6.93;;
15155;SDS011;7678;50.058;8.306;2024-01-25T10:50:25;25.20;;;6.63;;
15155;SDS011;7678;50.058;8.306;2024-01-25T10:52:53;26.93;;;5.67;;
15155;SDS011;7678;50.058;8.306;2024-01-25T10:55:21;26.10;;;6.30;;
15155;SDS011;7678;50.058;8.306;2024-01-25T10:57:52;34.83;;;6.70;;
15155;SDS011;7678;50.058;8.306;2024-01-25T11:00:21;29.30;;;6.20;;
15155;SDS011;7678;50.058;8.306;2024-01-25T11:02:51;26.67;;;6.37;;
15155;SDS011;7678;50.058;8.306;2024-01-25T11:05:20;37.70;;;6.97;;
15155;SDS011;7678;50.058;8.306;2024-01-25T11:07:50;30.77;;;6.37;;
15155;SDS011;7678;50.058;8.306;2024-01-25T11:10:19;33.63;;;10.60;;
15155;SDS011;7678;50.058;8.306;2024-01-25T11:12:49;27.27;;;6.93;;
15155;SDS011;7678;50.058;8.306;2024-01-25T11:15:22;31.23;;;6.07;;
15155;SDS011;7678;50.058;8.306;2024-01-25T11:17:56;25.93;;;6.00;;
15155;SDS011;7678;50.058;8.306;2024-01-25T11:20:25;25.07;;;6.67;;
15155;SDS011;7678;50.058;8.306;2024-01-25T11:22:56;32.97;;;6.70;;
15155;SDS011;7678;50.058;8.306;2024-01-25T11:25:28;33.13;;;6.73;;
15155;SDS011;7678;50.058;8.306;2024-01-25T11:27:58;21.30;;;5.07;;
15155;SDS011;7678;50.058;8.306;2024-01-25T11:30:30;21.87;;;5.43;;
15155;SDS011;7678;50.058;8.306;2024-01-25T11:32:59;31.63;;;6.33;;
15155;SDS011;7678;50.058;8.306;2024-01-25T11:35:28;31.07;;;6.00;;
15155;SDS011;7678;50.058;8.306;2024-01-25T11:37:57;25.20;;;6.23;;
15155;SDS011;7678;50.058;8.306;2024-01-25T11:40:27;32.00;;;5.60;;
15155;SDS011;7678;50.058;8.306;2024-01-25T11:43:04;25.83;;;5.67;;
15155;SDS011;7678;50.058;8.306;2024-01-25T11:45:38;27.67;;;5.33;;
15155;SDS011;7678;50.058;8.306;2024-01-25T11:48:10;24.87;;;5.47;;
15155;SDS011;7678;50.058;8.306;2024-01-25T11:50:38;26.63;;;5.97;;
15155;SDS011;7678;50.058;8.306;2024-01-25T11:53:07;21.63;;;4.83;;
15155;SDS011;7678;50.058;8.306;2024-01-25T11:55:36;24.13;;;6.37;;
15155;SDS011;7678;50.058;8.306;2024-01-25T11:58:04;24.20;;;5.53;;
15155;SDS011;7678;50.058;8.306;2024-01-25T12:00:32;28.20;;;6.40;;
15155;SDS011;7678;50.058;8.306;2024-01-25T12:03:03;20.10;;;4.50;;
15155;SDS011;7678;50.058;8.306;2024-01-25T12:05:31;19.57;;;4.97;;
15155;SDS011;7678;50.058;8.306;2024-01-25T12:08:00;32.73;;;6.07;;
15155;SDS011;7678;50.058;8.306;2024-01-25T12:10:28;21.83;;;5.17;;
15155;SDS011;7678;50.058;8.306;2024-01-25T12:12:56;18.53;;;5.03;;
15155;SDS011;7678;50.058;8.306;2024-01-25T12:15:24;22.87;;;5.30;;
15155;SDS011;7678;50.058;8.306;2024-01-25T12:17:53;21.27;;;5.00;;
15155;SDS011;7678;50.058;8.306;2024-01-25T12:20:23;28.27;;;5.33;;
15155;SDS011;7678;50.058;8.306;2024-01-25T12:22:51;25.77;;;5.97;;
15155;SDS011;7678;50.058;8.306;2024-01-25T12:25:20;25.00;;;5.87;;
15155;SDS011;7678;50.058;8.306;2024-01-25T12:27:48;27.47;;;6.03;;
15155;SDS011;7678;50.058;8.306;2024-01-25T12:30:16;24.77;;;5.37;;
15155;SDS011;7678;50.058;8.306;2024-01-25T12:32:47;28.57;;;6.37;;
15155;SDS011;7678;50.058;8.306;2024-01-25T12:35:16;23.30;;;5.90;;
15155;SDS011;7678;50.058;8.306;2024-01-25T12:37:46;22.57;;;5.30;;
15155;SDS011;7678;50.058;8.306;2024-01-25T12:40:15;22.17;;;5.33;;
15155;SDS011;7678;50.058;8.306;2024-01-25T12:42:43;18.73;;;5.30;;
15155;SDS011;7678;50.058;8.306;2024-01-25T12:45:12;24.27;;;5.13;;
15155;SDS011;7678;50.058;8.306;2024-01-25T12:47:40;21.20;;;6.03;;
15155;SDS011;7678;50.058;8.306;2024-01-25T12:50:09;28.67;;;5.73;;
15155;SDS011;7678;50.058;8.306;2024-01-25T12:52:37;26.77;;;5.60;;
15155;SDS011;7678;50.058;8.306;2024-01-25T12:55:07;23.57;;;5.90;;
15155;SDS011;7678;50.058;8.306;2024-01-25T12:57:38;20.30;;;4.93;;
15155;SDS011;7678;50.058;8.306;2024-01-25T13:00:07;23.17;;;5.77;;
15155;SDS011;7678;50.058;8.306;2024-01-25T13:02:36;27.97;;;5.13;;
15155;SDS011;7678;50.058;8.306;2024-01-25T13:05:04;27.07;;;6.40;;
15155;SDS011;7678;50.058;8.306;2024-01-25T13:07:34;27.00;;;8.77;;
15155;SDS011;7678;50.058;8.306;2024-01-25T13:10:02;23.53;;;5.13;;
15155;SDS011;7678;50.058;8.306;2024-01-25T13:12:31;22.13;;;5.43;;
15155;SDS011;7678;50.058;8.306;2024-01-25T13:14:59;27.37;;;6.30;;
15155;SDS011;7678;50.058;8.306;2024-01-25T13:17:28;22.97;;;5.43;;
15155;SDS011;7678;50.058;8.306;2024-01-25T13:19:57;21.63;;;5.60;;
15155;SDS011;7678;50.058;8.306;2024-01-25T13:22:25;26.13;;;5.67;;
15155;SDS011;7678;50.058;8.306;2024-01-25T13:24:53;20.90;;;5.10;;
15155;SDS011;7678;50.058;8.306;2024-01-25T13:27:21;24.10;;;6.10;;
15155;SDS011;7678;50.058;8.306;2024-01-25T13:29:51;26.37;;;5.10;;
15155;SDS011;7678;50.058;8.306;2024-01-25T13:32:20;19.97;;;4.90;;
15155;SDS011;7678;50.058;8.306;2024-01-25T13:34:48;23.03;;;5.10;;
15155;SDS011;7678;50.058;8.306;2024-01-25T13:37:16;20.80;;;4.70;;
15155;SDS011;7678;50.058;8.306;2024-01-25T13:39:45;24.60;;;5.30;;
15155;SDS011;7678;50.058;8.306;2024-01-25T13:42:13;24.00;;;4.70;;
15155;SDS011;7678;50.058;8.306;2024-01-25T13:44:41;23.23;;;6.27;;
15155;SDS011;7678;50.058;8.306;2024-01-25T13:47:11;23.53;;;5.63;;
15155;SDS011;7678;50.058;8.306;2024-01-25T13:49:39;21.50;;;4.90;;
15155;SDS011;7678;50.058;8.306;2024-01-25T13:52:07;19.70;;;4.93;;
15155;SDS011;7678;50.058;8.306;2024-01-25T13:54:46;20.00;;;5.33;;
15155;SDS011;7678;50.058;8.306;2024-01-25T13:57:16;23.57;;;5.70;;
15155;SDS011;7678;50.058;8.306;2024-01-25T13:59:47;22.07;;;5.77;;
15155;SDS011;7678;50.058;8.306;2024-01-25T14:02:16;26.03;;;5.50;;
15155;SDS011;7678;50.058;8.306;2024-01-25T14:04:45;20.97;;;5.57;;
15155;SDS011;7678;50.058;8.306;2024-01-25T14:07:15;24.80;;;5.13;;
15155;SDS011;7678;50.058;8.306;2024-01-25T14:09:43;26.87;;;6.73;;
15155;SDS011;7678;50.058;8.306;2024-01-25T14:12:14;20.43;;;4.67;;
15155;SDS011;7678;50.058;8.306;2024-01-25T14:14:43;23.47;;;5.27;;
15155;SDS011;7678;50.058;8.306;2024-01-25T14:17:11;19.97;;;5.27;;
15155;SDS011;7678;50.058;8.306;2024-01-25T14:19:41;21.20;;;5.40;;
15155;SDS011;7678;50.058;8.306;2024-01-25T14:22:09;19.93;;;5.13;;
15155;SDS011;7678;50.058;8.306;2024-01-25T14:24:54;27.60;;;6.03;;
15155;SDS011;7678;50.058;8.306;2024-01-25T14:27:23;28.80;;;6.07;;
15155;SDS011;7678;50.058;8.306;2024-01-25T14:29:51;26.37;;;5.37;;
15155;SDS011;7678;50.058;8.306;2024-01-25T14:32:19;27.47;;;5.90;;
15155;SDS011;7678;50.058;8.306;2024-01-25T14:34:49;18.57;;;5.40;;
15155;SDS011;7678;50.058;8.306;2024-01-25T14:37:18;26.23;;;5.53;;
15155;SDS011;7678;50.058;8.306;2024-01-25T14:39:47;22.43;;;5.73;;
15155;SDS011;7678;50.058;8.306;2024-01-25T14:42:35;22.90;;;5.10;;
15155;SDS011;7678;50.058;8.306;2024-01-25T14:45:05;25.97;;;6.27;;
15155;SDS011;7678;50.058;8.306;2024-01-25T14:47:36;25.20;;;5.30;;
15155;SDS011;7678;50.058;8.306;2024-01-25T14:50:06;26.93;;;5.27;;
15155;SDS011;7678;50.058;8.306;2024-01-25T14:52:35;18.23;;;4.60;;
15155;SDS011;7678;50.058;8.306;2024-01-25T14:55:03;16.53;;;5.07;;
15155;SDS011;7678;50.058;8.306;2024-01-25T14:57:32;17.97;;;5.30;;
15155;SDS011;7678;50.058;8.306;2024-01-25T15:00:01;19.10;;;5.00;;